Terminal Aerodrome Forecast
Issued by NWS

Home | Current Version | Previous Version | Graphics & Text | Print | Product List | Glossary On
Versions: 1 2 3 4 5 6 7 8 9 10 11 12 13 14 15 16 17 18 19
328
FTUS43 KMPX 081740
TAFRNH
TAF
KRNH 081740Z 0818/0918 27007KT P6SM SCT015 BKN150
     FM082300 26010KT 4SM -SN OVC017
     FM090000 26011KT 1 1/2SM -SN OVC015
     FM090230 31010KT P6SM VCSH OVC020
     FM090400 32015G26KT P6SM OVC020
     FM090700 33010KT P6SM BKN020=

USA.gov is the U.S. government's official web portal to all federal, state and local government web resources and services.